createdAt,value
2019-06-20T00:00:41.096Z,96.00
2019-06-20T00:01:41.085Z,96.20
2019-06-20T00:02:41.068Z,95.79
2019-06-20T00:03:41.152Z,95.59
2019-06-20T00:04:41.051Z,96.10
2019-06-20T00:05:41.038Z,96.40
2019-06-20T00:06:41.033Z,95.79
2019-06-20T00:07:41.018Z,96.20
2019-06-20T00:08:41.789Z,96.00
2019-06-20T00:09:40.993Z,95.59
2019-06-20T00:10:40.982Z,95.70
2019-06-20T00:11:41.005Z,95.54
2019-06-20T00:12:40.965Z,96.25
2019-06-20T00:13:40.983Z,96.75
2019-06-20T00:14:40.973Z,96.65
2019-06-20T00:15:40.934Z,96.40
2019-06-20T00:16:40.927Z,96.45
2019-06-20T00:17:40.910Z,96.55
2019-06-20T00:18:40.923Z,96.65
2019-06-20T00:19:40.892Z,96.85
2019-06-20T00:20:40.872Z,97.16
2019-06-20T00:21:40.867Z,96.65
2019-06-20T00:22:40.868Z,96.85
2019-06-20T00:23:40.861Z,96.65
2019-06-20T00:24:40.837Z,96.95
2019-06-20T00:25:40.824Z,97.16
2019-06-20T00:26:40.812Z,96.85
2019-06-20T00:27:40.804Z,96.85
2019-06-20T00:28:40.806Z,96.95
2019-06-20T00:29:40.779Z,97.16
2019-06-20T00:30:40.781Z,96.85
2019-06-20T00:31:40.766Z,95.94
2019-06-20T00:32:40.759Z,96.75
2019-06-20T00:33:40.767Z,96.14
2019-06-20T00:34:40.725Z,96.25
2019-06-20T00:35:40.719Z,95.64
2019-06-20T00:36:40.708Z,96.55
2019-06-20T00:37:40.694Z,96.95
2019-06-20T00:38:40.699Z,96.75
2019-06-20T00:39:40.683Z,96.65
2019-06-20T00:40:40.657Z,96.04
2019-06-20T00:41:40.648Z,95.84
2019-06-20T00:42:40.640Z,95.84
2019-06-20T00:43:40.625Z,95.84
2019-06-20T00:44:40.650Z,96.25
2019-06-20T00:45:40.606Z,95.19
2019-06-20T00:46:40.599Z,94.18
2019-06-20T00:47:40.588Z,94.79
2019-06-20T00:48:40.569Z,94.64
2019-06-20T00:49:40.601Z,94.68
2019-06-20T00:50:40.563Z,93.48
2019-06-20T00:51:40.546Z,93.43
2019-06-20T00:52:40.539Z,92.82
2019-06-20T00:53:40.523Z,92.72
2019-06-20T00:54:40.536Z,92.78
2019-06-20T00:55:40.493Z,92.32
2019-06-20T00:56:40.490Z,92.07
2019-06-20T00:57:40.477Z,91.87
2019-06-20T00:58:40.486Z,91.87
2019-06-20T00:59:40.490Z,91.67
2019-06-20T01:00:40.440Z,92.07
2019-06-20T01:01:40.431Z,91.67
2019-06-20T01:02:40.439Z,91.47
2019-06-20T01:03:40.407Z,91.27
2019-06-20T01:04:40.503Z,90.86
2019-06-20T01:05:40.411Z,91.17
2019-06-20T01:06:40.375Z,90.97
2019-06-20T01:07:40.363Z,90.82
2019-06-20T01:08:40.362Z,91.63
2019-06-20T01:09:40.369Z,91.02
2019-06-20T01:10:40.363Z,90.92
2019-06-20T01:11:40.327Z,90.92
2019-06-20T01:12:40.320Z,90.97
2019-06-20T01:13:40.303Z,90.82
2019-06-20T01:14:40.308Z,90.42
2019-06-20T01:15:40.370Z,90.11
2019-06-20T01:16:40.274Z,90.42
2019-06-20T01:17:40.261Z,90.72
2019-06-20T01:18:40.251Z,89.71
2019-06-20T01:19:40.262Z,90.42
2019-06-20T01:20:40.225Z,90.42
2019-06-20T01:21:40.216Z,90.52
2019-06-20T01:22:40.214Z,89.71
2019-06-20T01:23:40.199Z,89.21
2019-06-20T01:24:40.233Z,89.31
2019-06-20T01:25:40.183Z,89.71
2019-06-20T01:26:40.170Z,90.42
2019-06-20T01:27:40.155Z,90.22
2019-06-20T01:28:40.162Z,89.31
2019-06-20T01:29:40.159Z,89.61
2019-06-20T01:30:40.122Z,91.02
2019-06-20T01:31:40.114Z,90.62
2019-06-20T01:32:40.116Z,91.13
2019-06-20T01:33:40.090Z,91.83
2019-06-20T01:34:40.077Z,91.02
2019-06-20T01:35:40.065Z,90.72
2019-06-20T01:36:40.061Z,91.13
2019-06-20T01:37:40.071Z,90.22
2019-06-20T01:38:40.041Z,90.22
2019-06-20T01:39:40.020Z,90.72
2019-06-20T01:40:40.018Z,90.82
2019-06-20T01:41:40.006Z,90.72
2019-06-20T01:42:40.017Z,90.22
2019-06-20T01:43:49.964Z,90.22
2019-06-20T01:44:40.966Z,90.72
2019-06-20T01:45:39.962Z,90.62
2019-06-20T01:46:39.949Z,90.22
2019-06-20T01:47:39.936Z,89.71
2019-06-20T01:48:39.968Z,89.61
2019-06-20T01:49:39.921Z,89.91
2019-06-20T01:50:39.935Z,89.91
2019-06-20T01:51:39.901Z,90.07
2019-06-20T01:52:39.883Z,89.47
2019-06-20T01:53:39.908Z,89.11
2019-06-20T01:54:39.869Z,88.90
2019-06-20T01:55:39.887Z,88.70
2019-06-20T01:56:39.840Z,88.76
2019-06-20T01:57:39.857Z,88.81
2019-06-20T01:58:39.895Z,88.70
2019-06-20T01:59:39.808Z,88.30
2019-06-20T02:00:39.805Z,88.20
2019-06-20T02:01:39.799Z,88.00
2019-06-20T02:02:39.789Z,88.70
2019-06-20T02:03:39.810Z,88.90
2019-06-20T02:04:39.752Z,88.70
2019-06-20T02:05:39.744Z,88.81
2019-06-20T02:06:39.753Z,88.81
2019-06-20T02:07:39.721Z,88.20
2019-06-20T02:08:39.736Z,87.80
2019-06-20T02:09:39.704Z,88.81
2019-06-20T02:10:39.704Z,88.24
2019-06-20T02:11:39.697Z,88.70
2019-06-20T02:12:39.699Z,88.81
2019-06-20T02:13:39.790Z,88.90
2019-06-20T02:14:39.652Z,89.45
2019-06-20T02:15:39.644Z,89.15
2019-06-20T02:16:39.631Z,88.75
2019-06-20T02:17:39.643Z,88.75
2019-06-20T02:18:39.634Z,89.15
2019-06-20T02:19:39.593Z,90.16
2019-06-20T02:20:39.606Z,89.70
2019-06-20T02:21:39.578Z,90.46
2019-06-20T02:22:39.566Z,90.30
2019-06-20T02:23:39.577Z,90.61
2019-06-20T02:24:39.546Z,91.21
2019-06-20T02:25:39.532Z,90.81
2019-06-20T02:26:39.524Z,91.96
2019-06-20T02:27:39.518Z,92.06
2019-06-20T02:28:39.516Z,92.16
2019-06-20T02:29:39.494Z,92.06
2019-06-20T02:30:39.482Z,92.06
2019-06-20T02:31:39.468Z,92.66
2019-06-20T02:32:39.464Z,92.46
2019-06-20T02:33:39.469Z,92.46
2019-06-20T02:34:39.453Z,91.96
2019-06-20T02:35:39.433Z,92.57
2019-06-20T02:36:39.416Z,92.66
2019-06-20T02:37:39.407Z,92.00
2019-06-20T02:38:39.419Z,92.16
2019-06-20T02:39:39.383Z,92.71
2019-06-20T02:40:39.377Z,92.71
2019-06-20T02:41:39.365Z,92.71
2019-06-20T02:42:39.349Z,93.01
2019-06-20T02:43:39.359Z,92.81
2019-06-20T02:44:39.344Z,92.91
2019-06-20T02:45:39.335Z,92.81
2019-06-20T02:46:39.309Z,92.81
2019-06-20T02:47:39.320Z,93.32
2019-06-20T02:48:39.307Z,93.41
2019-06-20T02:49:39.274Z,93.32
2019-06-20T02:50:39.266Z,93.12
2019-06-20T02:51:39.254Z,92.91
2019-06-20T02:52:39.245Z,93.16
2019-06-20T02:53:39.257Z,93.32
2019-06-20T02:54:39.222Z,93.41
2019-06-20T02:55:39.215Z,92.76
2019-06-20T02:56:39.193Z,93.36
2019-06-20T02:57:39.207Z,93.16
2019-06-20T02:58:39.196Z,93.96
2019-06-20T02:59:39.171Z,94.47
2019-06-20T03:00:39.152Z,94.27
2019-06-20T03:01:39.144Z,94.57
2019-06-20T03:02:39.129Z,94.62
2019-06-20T03:03:39.135Z,94.62
2019-06-20T03:04:39.115Z,94.62
2019-06-20T03:05:39.101Z,95.22
2019-06-20T03:06:39.090Z,95.43
2019-06-20T03:07:39.081Z,95.07
2019-06-20T03:08:39.083Z,95.98
2019-06-20T03:09:39.055Z,95.98
2019-06-20T03:10:39.061Z,96.08
2019-06-20T03:11:39.029Z,95.98
2019-06-20T03:12:39.044Z,96.42
2019-06-20T03:13:39.014Z,96.22
2019-06-20T03:14:45.415Z,96.33
2019-06-20T03:15:39.984Z,96.12
2019-06-20T03:16:38.980Z,96.12
2019-06-20T03:17:38.984Z,96.57
2019-06-20T03:18:38.958Z,96.78
2019-06-20T03:19:38.947Z,96.63
2019-06-20T03:20:38.949Z,96.33
2019-06-20T03:21:38.932Z,96.33
2019-06-20T03:22:38.952Z,96.22
2019-06-20T03:23:38.905Z,96.07
2019-06-20T03:24:38.890Z,96.57
2019-06-20T03:25:38.875Z,96.17
2019-06-20T03:26:38.865Z,96.27
2019-06-20T03:27:38.874Z,96.12
2019-06-20T03:28:38.847Z,96.37
2019-06-20T03:29:38.834Z,96.07
2019-06-20T03:30:38.824Z,96.27
2019-06-20T03:31:38.807Z,96.17
2019-06-20T03:32:38.820Z,96.17
2019-06-20T03:33:38.797Z,95.97
2019-06-20T03:34:38.781Z,96.53
2019-06-20T03:35:38.770Z,96.47
2019-06-20T03:36:38.750Z,96.12
2019-06-20T03:37:38.767Z,96.47
2019-06-20T03:38:38.735Z,96.37
2019-06-20T03:39:38.722Z,95.86
2019-06-20T03:40:38.713Z,96.42
2019-06-20T03:41:38.705Z,96.12
2019-06-20T03:42:38.715Z,96.33
2019-06-20T03:43:38.704Z,96.73
2019-06-20T03:44:38.670Z,96.07
2019-06-20T03:45:38.653Z,95.72
2019-06-20T03:46:38.647Z,95.21
2019-06-20T03:47:38.661Z,95.11
2019-06-20T03:48:38.618Z,95.11
2019-06-20T03:49:38.609Z,95.21
2019-06-20T03:50:38.599Z,94.96
2019-06-20T03:51:38.584Z,94.15
2019-06-20T03:52:38.600Z,94.36
2019-06-20T03:53:38.570Z,94.15
2019-06-20T03:54:38.560Z,94.26
2019-06-20T03:55:38.554Z,94.15
2019-06-20T03:56:38.538Z,93.75
2019-06-20T03:57:38.541Z,92.84
2019-06-20T03:58:38.531Z,93.04
2019-06-20T03:59:38.499Z,92.94
2019-06-20T04:00:38.500Z,92.84
2019-06-20T04:01:38.479Z,92.64
2019-06-20T04:02:38.485Z,93.00
2019-06-20T04:03:38.453Z,92.40
2019-06-20T04:04:38.458Z,92.40
2019-06-20T04:05:38.450Z,92.69
2019-06-20T04:06:38.488Z,92.60
2019-06-20T04:07:38.577Z,92.40
2019-06-20T04:08:38.398Z,92.80
2019-06-20T04:09:38.420Z,92.60
2019-06-20T04:10:38.382Z,92.60
2019-06-20T04:11:38.363Z,92.49
2019-06-20T04:12:38.362Z,92.29
2019-06-20T04:13:38.369Z,92.29
2019-06-20T04:14:38.337Z,92.19
2019-06-20T04:15:38.330Z,92.19
2019-06-20T04:16:38.312Z,92.19
2019-06-20T04:17:38.300Z,92.19
2019-06-20T04:18:38.311Z,92.80
2019-06-20T04:19:38.294Z,92.80
2019-06-20T04:20:38.267Z,92.14
2019-06-20T04:21:38.259Z,91.99
2019-06-20T04:22:38.266Z,91.94
2019-06-20T04:23:38.252Z,92.76
2019-06-20T04:24:38.271Z,92.45
2019-06-20T04:25:38.215Z,92.41
2019-06-20T04:26:38.203Z,92.10
2019-06-20T04:27:38.194Z,92.21
2019-06-20T04:28:38.198Z,92.46
2019-06-20T04:29:38.167Z,92.30
2019-06-20T04:30:38.157Z,90.95
2019-06-20T04:31:38.141Z,91.25
2019-06-20T04:32:38.151Z,92.36
2019-06-20T04:33:38.168Z,92.36
2019-06-20T04:34:38.112Z,92.26
2019-06-20T04:35:38.099Z,92.16
2019-06-20T04:36:38.095Z,91.15
2019-06-20T04:37:38.080Z,90.34
2019-06-20T04:38:38.092Z,90.70
2019-06-20T04:39:38.061Z,91.01
2019-06-20T04:40:38.045Z,90.85
2019-06-20T04:41:38.034Z,90.20
2019-06-20T04:42:38.039Z,90.41
2019-06-20T04:43:38.036Z,90.41
2019-06-20T04:44:38.005Z,90.70
2019-06-20T04:45:37.997Z,91.17
2019-06-20T04:46:37.982Z,90.46
2019-06-20T04:47:37.974Z,89.25
2019-06-20T04:48:37.975Z,90.16
2019-06-20T04:49:37.973Z,91.27
2019-06-20T04:50:37.939Z,91.06
2019-06-20T04:51:37.931Z,90.92
2019-06-20T04:52:37.916Z,91.13
2019-06-20T04:53:37.936Z,89.21
2019-06-20T04:54:37.894Z,89.01
2019-06-20T04:55:37.900Z,87.05
2019-06-20T04:56:37.876Z,87.15
2019-06-20T04:57:37.864Z,86.81
2019-06-20T04:58:38.071Z,85.80
2019-06-20T04:59:37.849Z,85.90
2019-06-20T05:00:37.829Z,84.75
2019-06-20T05:01:37.818Z,84.65
2019-06-20T05:02:37.810Z,83.65
2019-06-20T05:03:37.838Z,83.75
2019-06-20T05:04:37.789Z,84.45
2019-06-20T05:05:37.787Z,84.25
2019-06-20T05:06:37.759Z,83.31
2019-06-20T05:07:37.745Z,83.45
2019-06-20T05:08:37.873Z,82.50
2019-06-20T05:09:37.728Z,81.59
2019-06-20T05:10:37.718Z,81.46
2019-06-20T05:11:37.710Z,81.96
2019-06-20T05:12:37.695Z,82.06
2019-06-20T05:13:37.683Z,81.52
2019-06-20T05:14:37.690Z,81.48
2019-06-20T05:15:51.363Z,79.43
2019-06-20T05:16:38.654Z,78.96
2019-06-20T05:17:37.641Z,76.91
2019-06-20T05:18:37.650Z,76.11
2019-06-20T05:19:37.732Z,75.47
2019-06-20T05:20:37.605Z,75.37
2019-06-20T05:21:37.596Z,76.07
2019-06-20T05:22:37.590Z,76.07
2019-06-20T05:23:37.593Z,76.28
2019-06-20T05:24:37.584Z,75.47
2019-06-20T05:25:37.553Z,76.57
2019-06-20T05:26:37.541Z,77.28
2019-06-20T05:27:37.534Z,76.57
2019-06-20T05:28:37.540Z,76.17
2019-06-20T05:29:37.690Z,76.54
2019-06-20T05:30:37.503Z,76.57
2019-06-20T05:31:37.500Z,76.78
2019-06-20T05:32:37.472Z,75.87
2019-06-20T05:33:37.465Z,75.97
2019-06-20T05:34:37.624Z,76.81
2019-06-20T05:35:37.882Z,77.01
2019-06-20T05:36:37.448Z,76.51
2019-06-20T05:37:37.424Z,77.01
2019-06-20T05:38:37.411Z,76.71
2019-06-20T05:39:37.587Z,77.11
2019-06-20T05:40:37.429Z,77.35
2019-06-20T05:41:37.427Z,76.95
2019-06-20T05:42:37.368Z,77.05
2019-06-20T05:43:37.359Z,77.55
2019-06-20T05:44:37.360Z,78.69
2019-06-20T05:45:37.334Z,79.29
2019-06-20T05:46:37.334Z,78.39
2019-06-20T05:47:37.309Z,78.79
2019-06-20T05:48:37.316Z,79.99
2019-06-20T05:49:37.309Z,80.50
2019-06-20T05:50:37.335Z,80.10
2019-06-20T05:51:39.699Z,80.90
2019-06-20T05:52:37.259Z,79.60
2019-06-20T05:53:37.331Z,78.45
2019-06-20T05:54:37.257Z,78.85
2019-06-20T05:55:37.231Z,78.66
2019-06-20T05:56:37.209Z,78.05
2019-06-20T05:57:37.200Z,78.05
2019-06-20T05:58:37.191Z,79.05
2019-06-20T05:59:37.195Z,78.66
2019-06-20T06:00:37.172Z,78.15
2019-06-20T06:01:37.159Z,78.52
2019-06-20T06:02:37.386Z,77.58
2019-06-20T06:03:37.140Z,76.07
2019-06-20T06:04:37.157Z,76.43
2019-06-20T06:05:37.275Z,75.84
2019-06-20T06:06:37.165Z,76.30
2019-06-20T06:07:37.087Z,76.50
2019-06-20T06:08:37.103Z,74.16
2019-06-20T06:09:37.075Z,74.87
2019-06-20T06:10:37.077Z,73.93
2019-06-20T06:11:37.057Z,72.53
2019-06-20T06:12:37.068Z,73.03
2019-06-20T06:13:37.029Z,71.39
2019-06-20T06:14:37.043Z,72.39
2019-06-20T06:15:37.027Z,71.76
2019-06-20T06:16:36.993Z,71.06
2019-06-20T06:17:36.982Z,71.12
2019-06-20T06:18:36.976Z,70.72
2019-06-20T06:19:36.958Z,71.92
2019-06-20T06:20:36.973Z,70.53
2019-06-20T06:21:36.943Z,71.39
2019-06-20T06:22:36.934Z,69.16
2019-06-20T06:23:36.927Z,67.53
2019-06-20T06:24:36.905Z,66.06
2019-06-20T06:25:36.915Z,66.96
2019-06-20T06:26:36.894Z,68.03
2019-06-20T06:27:36.887Z,67.80
2019-06-20T06:28:36.857Z,67.50
2019-06-20T06:29:36.848Z,67.57
2019-06-20T06:30:36.857Z,67.60
2019-06-20T06:31:36.824Z,65.20
2019-06-20T06:32:40.516Z,65.11
2019-06-20T06:33:36.809Z,66.13
2019-06-20T06:34:36.796Z,65.97
2019-06-20T06:35:36.807Z,67.80
2019-06-20T06:36:36.767Z,67.80
2019-06-20T06:37:36.776Z,66.47
2019-06-20T06:38:36.751Z,65.56
2019-06-20T06:39:36.742Z,66.00
2019-06-20T06:40:36.766Z,67.40
2019-06-20T06:41:36.793Z,68.52
2019-06-20T06:42:36.706Z,66.43
2019-06-20T06:43:41.754Z,69.53
2019-06-20T06:44:37.687Z,68.43
2019-06-20T06:45:36.710Z,67.72
2019-06-20T06:46:44.922Z,68.29
2019-06-20T06:47:37.671Z,68.46
2019-06-20T06:48:36.644Z,66.86
2019-06-20T06:49:36.635Z,67.33
2019-06-20T06:50:36.655Z,65.73
2019-06-20T06:51:38.289Z,67.40
2019-06-20T06:52:36.602Z,66.36
2019-06-20T06:53:36.588Z,66.17
2019-06-20T06:54:36.577Z,65.83
2019-06-20T06:55:36.593Z,66.00
2019-06-20T06:56:36.559Z,65.54
2019-06-20T06:57:36.543Z,64.28
2019-06-20T06:58:36.546Z,63.46
2019-06-20T06:59:36.526Z,64.55
2019-06-20T07:00:37.868Z,64.15
2019-06-20T07:01:36.499Z,62.96
2019-06-20T07:02:36.500Z,63.53
2019-06-20T07:03:36.485Z,62.04
2019-06-20T07:04:36.472Z,61.83
2019-06-20T07:05:36.483Z,61.80
2019-06-20T07:06:36.451Z,60.91
2019-06-20T07:07:36.440Z,60.14
2019-06-20T07:08:36.422Z,62.07
2019-06-20T07:09:36.414Z,61.47
2019-06-20T07:10:36.405Z,61.20
2019-06-20T07:11:36.410Z,62.72
2019-06-20T07:12:36.394Z,61.37
2019-06-20T07:13:36.428Z,60.60
2019-06-20T07:14:36.364Z,61.20
2019-06-20T07:15:36.566Z,61.90
2019-06-20T07:16:36.378Z,62.29
2019-06-20T07:17:36.334Z,61.80
2019-06-20T07:18:36.326Z,59.88
2019-06-20T07:19:36.337Z,60.14
2019-06-20T07:20:36.319Z,60.52
2019-06-20T07:21:36.300Z,61.38
2019-06-20T07:22:36.277Z,58.57
2019-06-20T07:23:36.270Z,57.75
2019-06-20T07:24:36.267Z,59.44
2019-06-20T07:25:36.251Z,57.59
2019-06-20T07:26:36.277Z,55.29
2019-06-20T07:27:36.228Z,54.37
2019-06-20T07:28:36.212Z,54.17
2019-06-20T07:29:36.200Z,55.53
2019-06-20T07:30:36.197Z,53.75
2019-06-20T07:31:36.206Z,53.06
2019-06-20T07:32:36.164Z,54.17
2019-06-20T07:33:36.154Z,56.15
2019-06-20T07:34:36.147Z,55.93
2019-06-20T07:35:36.134Z,54.14
2019-06-20T07:36:36.181Z,53.63
2019-06-20T07:37:36.117Z,53.53
2019-06-20T07:38:36.107Z,54.22
2019-06-20T07:39:36.096Z,55.49
2019-06-20T07:40:36.090Z,56.01
2019-06-20T07:41:36.096Z,57.72
2019-06-20T07:42:36.080Z,56.97
2019-06-20T07:43:36.048Z,55.41
2019-06-20T07:44:36.041Z,56.63
2019-06-20T07:45:36.033Z,57.85
2019-06-20T07:46:36.104Z,58.04
2019-06-20T07:47:36.130Z,57.87
2019-06-20T07:48:36.056Z,57.68
2019-06-20T07:49:36.063Z,57.98
2019-06-20T07:50:39.270Z,55.99
2019-06-20T07:51:36.013Z,56.85
2019-06-20T07:52:36.046Z,57.42
2019-06-20T07:53:35.963Z,55.07
2019-06-20T07:54:35.926Z,56.46
2019-06-20T07:55:35.923Z,56.51
2019-06-20T07:56:35.911Z,54.79
2019-06-20T07:57:35.930Z,54.30
2019-06-20T07:58:36.051Z,53.28
2019-06-20T07:59:35.917Z,54.07
2019-06-20T08:00:35.899Z,52.81
2019-06-20T08:01:35.858Z,54.60
2019-06-20T08:02:36.228Z,52.41
2019-06-20T08:03:35.863Z,55.36
2019-06-20T08:04:35.836Z,52.91
2019-06-20T08:05:35.812Z,53.28
2019-06-20T08:06:35.804Z,50.93
2019-06-20T08:07:35.817Z,49.57
2019-06-20T08:08:35.827Z,49.99
2019-06-20T08:09:44.670Z,49.60
2019-06-20T08:10:36.805Z,49.55
2019-06-20T08:11:35.765Z,49.30
2019-06-20T08:12:35.774Z,49.99
2019-06-20T08:13:35.729Z,49.75
2019-06-20T08:14:35.723Z,48.57
2019-06-20T08:15:35.713Z,47.46
2019-06-20T08:16:35.734Z,48.74
2019-06-20T08:17:35.903Z,46.57
2019-06-20T08:18:35.673Z,47.60
2019-06-20T08:19:35.664Z,47.82
2019-06-20T08:20:35.667Z,49.40
2019-06-20T08:21:35.651Z,49.38
2019-06-20T08:22:35.686Z,49.45
2019-06-20T08:23:35.625Z,48.10
2019-06-20T08:24:35.615Z,46.28
2019-06-20T08:25:35.598Z,44.57
2019-06-20T08:26:35.601Z,43.57
2019-06-20T08:27:35.610Z,44.92
2019-06-20T08:28:35.620Z,42.57
2019-06-20T08:29:35.568Z,45.70
2019-06-20T08:30:35.553Z,42.76
2019-06-20T08:31:35.554Z,43.26
2019-06-20T08:32:35.529Z,43.35
2019-06-20T08:33:35.530Z,41.66
2019-06-20T08:34:35.512Z,42.72
2019-06-20T08:35:35.503Z,43.58
2019-06-20T08:36:35.485Z,41.19
2019-06-20T08:37:35.474Z,41.93
2019-06-20T08:38:35.484Z,40.23
2019-06-20T08:39:35.456Z,39.36
2019-06-20T08:40:35.457Z,38.94
2019-06-20T08:41:35.476Z,37.75
2019-06-20T08:42:35.427Z,36.68
2019-06-20T08:43:35.439Z,37.87
2019-06-20T08:44:35.437Z,38.48
2019-06-20T08:45:35.418Z,37.38
2019-06-20T08:46:35.388Z,38.24
2019-06-20T08:47:35.377Z,37.75
2019-06-20T08:48:35.393Z,37.04
2019-06-20T08:49:35.369Z,36.79
2019-06-20T08:50:35.345Z,34.40
2019-06-20T08:51:35.346Z,35.05
2019-06-20T08:52:35.341Z,35.28
2019-06-20T08:53:35.358Z,32.34
2019-06-20T08:54:35.334Z,32.23
2019-06-20T08:55:35.330Z,31.05
2019-06-20T08:56:35.286Z,32.46
2019-06-20T08:57:35.272Z,32.31
2019-06-20T08:58:35.294Z,31.10
2019-06-20T08:59:35.255Z,31.07
2019-06-20T09:00:35.250Z,32.47
2019-06-20T09:01:35.253Z,35.14
2019-06-20T09:02:35.246Z,34.19
2019-06-20T09:03:35.323Z,34.77
2019-06-20T09:04:35.209Z,35.41
2019-06-20T09:05:35.199Z,34.24
2019-06-20T09:06:35.196Z,33.96
2019-06-20T09:07:35.185Z,32.56
2019-06-20T09:08:35.209Z,31.94
2019-06-20T09:09:35.436Z,32.12
2019-06-20T09:10:35.237Z,32.82
2019-06-20T09:11:35.145Z,33.89
2019-06-20T09:12:35.191Z,31.46
2019-06-20T09:13:35.180Z,31.02
2019-06-20T09:14:35.174Z,33.54
2019-06-20T09:15:35.125Z,31.47
2019-06-20T09:16:35.121Z,32.14
2019-06-20T09:17:35.125Z,30.86
2019-06-20T09:18:35.107Z,31.73
2019-06-20T09:19:35.113Z,30.46
2019-06-20T09:20:35.093Z,31.41
2019-06-20T09:21:35.064Z,31.13
2019-06-20T09:22:35.042Z,30.72
2019-06-20T09:23:35.758Z,29.03
2019-06-20T09:24:35.141Z,29.49
2019-06-20T09:25:35.053Z,28.02
2019-06-20T09:26:35.023Z,27.86
2019-06-20T09:27:35.050Z,29.82
2019-06-20T09:28:35.022Z,29.13
2019-06-20T09:29:41.751Z,29.50
2019-06-20T09:30:36.066Z,29.20
2019-06-20T09:31:34.984Z,28.02
2019-06-20T09:32:34.964Z,28.30
2019-06-20T09:33:34.958Z,27.92
2019-06-20T09:34:34.953Z,27.53
2019-06-20T09:35:35.009Z,28.91
2019-06-20T09:36:34.942Z,28.55
2019-06-20T09:37:34.914Z,30.58
2019-06-20T09:38:34.925Z,29.35
2019-06-20T09:39:34.921Z,28.81
2019-06-20T09:40:34.898Z,28.00
2019-06-20T09:41:34.920Z,28.30
2019-06-20T09:42:36.863Z,29.06
2019-06-20T09:43:34.902Z,27.67
2019-06-20T09:44:34.863Z,28.47
2019-06-20T09:45:34.862Z,29.07
2019-06-20T09:46:34.850Z,30.75
2019-06-20T09:47:34.864Z,31.37
2019-06-20T09:48:34.852Z,30.46
2019-06-20T09:49:34.825Z,30.85
2019-06-20T09:50:34.814Z,30.98
2019-06-20T09:51:34.800Z,31.21
2019-06-20T09:52:34.817Z,33.47
2019-06-20T09:53:34.817Z,34.47
2019-06-20T09:54:34.798Z,35.49
2019-06-20T09:55:34.774Z,35.36
2019-06-20T09:56:34.782Z,35.64
2019-06-20T09:57:34.760Z,32.31
2019-06-20T09:58:34.763Z,31.16
2019-06-20T09:59:34.738Z,31.02
2019-06-20T10:00:34.719Z,32.45
2019-06-20T10:01:34.712Z,32.92
2019-06-20T10:02:34.724Z,33.44
2019-06-20T10:03:34.728Z,31.39
2019-06-20T10:04:34.699Z,31.04
2019-06-20T10:05:34.690Z,31.96
2019-06-20T10:06:34.677Z,32.04
2019-06-20T10:07:34.739Z,34.82
2019-06-20T10:08:34.666Z,36.55
2019-06-20T10:09:34.660Z,35.71
2019-06-20T10:10:34.687Z,36.67
2019-06-20T10:11:34.672Z,38.18
2019-06-20T10:12:34.611Z,39.17
2019-06-20T10:13:34.597Z,39.29
2019-06-20T10:14:34.591Z,40.19
2019-06-20T10:15:34.575Z,40.92
2019-06-20T10:16:45.356Z,42.47
2019-06-20T10:17:35.580Z,42.91
2019-06-20T10:18:34.574Z,43.54
2019-06-20T10:19:34.542Z,44.03
2019-06-20T10:20:34.594Z,44.53
2019-06-20T10:21:34.540Z,44.87
2019-06-20T10:22:34.504Z,44.47
2019-06-20T10:23:34.520Z,45.18
2019-06-20T10:24:34.487Z,45.50
2019-06-20T10:25:34.480Z,45.30
2019-06-20T10:26:37.559Z,45.83
2019-06-20T10:27:34.458Z,45.04
2019-06-20T10:28:34.446Z,43.41
2019-06-20T10:29:34.488Z,43.82
2019-06-20T10:30:34.427Z,45.23
2019-06-20T10:31:34.416Z,46.83
2019-06-20T10:32:34.401Z,45.64
2019-06-20T10:33:34.411Z,46.41
2019-06-20T10:34:34.382Z,46.83
2019-06-20T10:35:34.381Z,46.01
2019-06-20T10:36:34.383Z,46.22
2019-06-20T10:37:34.359Z,45.72
2019-06-20T10:38:34.367Z,47.20
2019-06-20T10:39:34.364Z,47.42
2019-06-20T10:40:34.321Z,47.72
2019-06-20T10:41:34.305Z,47.54
2019-06-20T10:42:34.304Z,47.64
2019-06-20T10:43:34.293Z,47.27
2019-06-20T10:44:34.308Z,49.07
2019-06-20T10:45:34.271Z,50.43
2019-06-20T10:46:34.253Z,49.74
2019-06-20T10:47:36.169Z,48.95
2019-06-20T10:48:34.237Z,50.83
2019-06-20T10:49:34.244Z,50.53
2019-06-20T10:50:34.219Z,50.71
2019-06-20T10:51:34.207Z,50.43
2019-06-20T10:52:34.199Z,51.37
2019-06-20T10:53:34.198Z,49.96
2019-06-20T10:54:34.189Z,50.04
2019-06-20T10:55:34.159Z,49.57
2019-06-20T10:56:34.153Z,51.32
2019-06-20T10:57:34.168Z,49.32
2019-06-20T10:58:34.153Z,49.10
2019-06-20T10:59:34.117Z,50.12
2019-06-20T11:00:34.114Z,50.48
2019-06-20T11:01:34.100Z,47.67
2019-06-20T11:02:34.093Z,48.74
2019-06-20T11:03:34.083Z,49.33
2019-06-20T11:04:34.082Z,46.84
2019-06-20T11:05:34.054Z,46.12
2019-06-20T11:06:34.040Z,45.93
2019-06-20T11:07:34.054Z,46.12
2019-06-20T11:08:34.024Z,45.53
2019-06-20T11:09:34.022Z,47.50
2019-06-20T11:10:34.053Z,47.16
2019-06-20T11:11:33.994Z,49.15
2019-06-20T11:12:42.897Z,48.58
2019-06-20T11:13:34.964Z,49.94
2019-06-20T11:14:33.980Z,49.84
2019-06-20T11:15:33.982Z,49.48
2019-06-20T11:16:33.939Z,50.38
2019-06-20T11:17:33.958Z,49.40
2019-06-20T11:18:33.923Z,49.10
2019-06-20T11:19:33.909Z,50.59
2019-06-20T11:20:33.919Z,49.30
2019-06-20T11:21:33.891Z,50.48
2019-06-20T11:22:33.889Z,50.21
2019-06-20T11:23:33.870Z,49.40
2019-06-20T11:24:33.857Z,49.40
2019-06-20T11:25:33.866Z,50.66
2019-06-20T11:26:33.850Z,49.10
2019-06-20T11:27:33.822Z,47.91
2019-06-20T11:28:33.816Z,48.71
2019-06-20T11:29:33.806Z,48.80
2019-06-20T11:30:47.967Z,48.80
2019-06-20T11:31:34.778Z,49.57
2019-06-20T11:32:33.771Z,48.80
2019-06-20T11:33:36.488Z,47.69
2019-06-20T11:34:33.757Z,47.30
2019-06-20T11:35:35.979Z,49.60
2019-06-20T11:36:33.740Z,49.30
2019-06-20T11:37:35.038Z,47.52
2019-06-20T11:38:33.701Z,49.60
2019-06-20T11:39:34.701Z,47.52
2019-06-20T11:40:33.717Z,47.54
2019-06-20T11:41:34.964Z,49.05
2019-06-20T11:42:34.690Z,49.87
2019-06-20T11:43:34.749Z,50.29
2019-06-20T11:44:35.305Z,50.09
2019-06-20T11:45:35.488Z,50.51
2019-06-20T11:46:35.362Z,51.23
2019-06-20T11:47:34.977Z,52.76
2019-06-20T11:48:34.322Z,54.47
2019-06-20T11:49:34.710Z,55.91
2019-06-20T11:50:34.915Z,55.72
2019-06-20T11:51:34.889Z,56.64
2019-06-20T11:52:40.052Z,56.12
2019-06-20T11:53:35.309Z,55.94
2019-06-20T11:54:34.450Z,55.44
2019-06-20T11:55:33.531Z,55.57
2019-06-20T11:56:33.528Z,56.84
2019-06-20T11:57:33.508Z,56.87
2019-06-20T11:58:33.488Z,58.69
2019-06-20T11:59:33.477Z,57.89
2019-06-20T12:00:33.475Z,57.96
2019-06-20T12:01:33.478Z,58.23
2019-06-20T12:02:33.449Z,56.91
2019-06-20T12:03:33.468Z,57.90
2019-06-20T12:04:33.433Z,57.87
2019-06-20T12:05:33.421Z,56.91
2019-06-20T12:06:33.432Z,56.81
2019-06-20T12:07:33.464Z,57.43
2019-06-20T12:08:33.410Z,57.73
2019-06-20T12:09:36.377Z,58.00
2019-06-20T12:10:33.365Z,57.11
2019-06-20T12:11:33.351Z,57.70
2019-06-20T12:12:33.346Z,58.03
2019-06-20T12:13:33.337Z,58.30
2019-06-20T12:14:33.338Z,58.10
2019-06-20T12:15:33.315Z,56.78
2019-06-20T12:16:33.306Z,57.18
2019-06-20T12:17:33.286Z,58.04
2019-06-20T12:18:33.296Z,56.73
2019-06-20T12:19:33.272Z,56.93
2019-06-20T12:20:33.259Z,56.13
2019-06-20T12:21:33.250Z,57.35
2019-06-20T12:22:33.264Z,57.08
2019-06-20T12:23:33.223Z,56.26
2019-06-20T12:24:33.219Z,57.72
2019-06-20T12:25:33.203Z,55.83
2019-06-20T12:26:33.236Z,55.91
2019-06-20T12:27:33.440Z,56.90
2019-06-20T12:28:33.167Z,56.30
2019-06-20T12:29:33.167Z,58.19
2019-06-20T12:30:33.172Z,56.83
2019-06-20T12:31:33.135Z,58.74
2019-06-20T12:32:33.149Z,58.17
2019-06-20T12:33:33.120Z,58.70
2019-06-20T12:34:33.111Z,59.00
2019-06-20T12:35:33.094Z,60.22
2019-06-20T12:36:33.093Z,58.40
2019-06-20T12:37:33.106Z,57.51
2019-06-20T12:38:33.086Z,56.61
2019-06-20T12:39:33.070Z,57.31
2019-06-20T12:40:33.062Z,58.00
2019-06-20T12:41:33.029Z,58.53
2019-06-20T12:42:33.019Z,59.85
2019-06-20T12:43:33.028Z,59.95
2019-06-20T12:44:33.003Z,59.48
2019-06-20T12:45:32.991Z,60.80
2019-06-20T12:46:32.976Z,61.13
2019-06-20T12:47:32.971Z,62.55
2019-06-20T12:48:32.954Z,64.34
2019-06-20T12:49:32.987Z,63.85
2019-06-20T12:50:32.971Z,66.50
2019-06-20T12:51:32.927Z,66.41
2019-06-20T12:52:32.947Z,64.91